createdAt,value
2022-07-31T00:00:05.943Z,9.50
2022-07-31T00:01:05.877Z,10.50
2022-07-31T00:02:05.870Z,10.50
2022-07-31T00:03:05.942Z,11.00
2022-07-31T00:04:05.855Z,8.50
2022-07-31T00:05:05.844Z,9.80
2022-07-31T00:06:05.838Z,8.90
2022-07-31T00:07:06.246Z,11.90
2022-07-31T00:08:05.852Z,8.70
2022-07-31T00:09:05.823Z,14.20
2022-07-31T00:10:06.801Z,9.80
2022-07-31T00:11:05.793Z,11.00
2022-07-31T00:12:05.781Z,12.00
2022-07-31T00:13:06.814Z,10.90
2022-07-31T00:14:05.774Z,10.30
2022-07-31T00:15:05.815Z,8.80
2022-07-31T00:16:05.756Z,9.20
2022-07-31T00:17:05.998Z,9.40
2022-07-31T00:18:05.770Z,10.50
2022-07-31T00:19:05.737Z,8.20
2022-07-31T00:20:05.726Z,9.80
2022-07-31T00:21:05.723Z,12.70
2022-07-31T00:22:05.721Z,10.20
2022-07-31T00:23:05.830Z,9.30
2022-07-31T00:24:05.696Z,11.20
2022-07-31T00:25:05.692Z,11.00
2022-07-31T00:26:05.683Z,10.30
2022-07-31T00:27:06.148Z,10.50
2022-07-31T00:28:05.694Z,9.60
2022-07-31T00:29:05.655Z,11.60
2022-07-31T00:30:05.648Z,9.80
2022-07-31T00:31:05.641Z,9.40
2022-07-31T00:32:05.640Z,10.20
2022-07-31T00:33:05.658Z,12.00
2022-07-31T00:34:05.612Z,8.90
2022-07-31T00:35:05.655Z,11.60
2022-07-31T00:36:05.602Z,10.80
2022-07-31T00:37:05.860Z,11.60
2022-07-31T00:38:26.369Z,11.30
2022-07-31T00:39:07.578Z,11.30
2022-07-31T00:40:05.568Z,9.90
2022-07-31T00:41:05.565Z,9.80
2022-07-31T00:42:05.555Z,10.40
2022-07-31T00:43:05.550Z,10.50
2022-07-31T00:44:05.577Z,10.30
2022-07-31T00:45:06.530Z,11.90
2022-07-31T00:46:05.527Z,11.00
2022-07-31T00:47:06.755Z,11.30
2022-07-31T00:48:05.507Z,12.20
2022-07-31T00:49:05.587Z,12.20
2022-07-31T00:50:05.496Z,12.70
2022-07-31T00:51:05.489Z,11.90
2022-07-31T00:52:05.483Z,12.20
2022-07-31T00:53:05.473Z,11.80
2022-07-31T00:54:05.495Z,12.80
2022-07-31T00:55:05.455Z,12.80
2022-07-31T00:56:05.456Z,11.30
2022-07-31T00:57:05.791Z,13.80
2022-07-31T00:58:05.426Z,11.20
2022-07-31T00:59:05.451Z,14.40
2022-07-31T01:00:05.417Z,10.40
2022-07-31T01:01:05.443Z,11.20
2022-07-31T01:02:05.404Z,10.10
2022-07-31T01:03:05.393Z,12.20
2022-07-31T01:04:05.421Z,14.40
2022-07-31T01:05:05.380Z,11.30
2022-07-31T01:06:05.380Z,11.60
2022-07-31T01:07:05.662Z,10.90
2022-07-31T01:08:05.368Z,9.90
2022-07-31T01:09:05.377Z,10.00
2022-07-31T01:10:05.346Z,11.60
2022-07-31T01:11:05.338Z,13.80
2022-07-31T01:12:05.333Z,10.30
2022-07-31T01:13:05.323Z,11.60
2022-07-31T01:14:05.347Z,11.20
2022-07-31T01:15:05.302Z,10.70
2022-07-31T01:16:05.309Z,10.90
2022-07-31T01:17:05.738Z,9.50
2022-07-31T01:18:05.286Z,12.20
2022-07-31T01:19:05.304Z,11.50
2022-07-31T01:20:05.265Z,10.40
2022-07-31T01:21:37.946Z,12.40
2022-07-31T01:22:05.260Z,11.80
2022-07-31T01:23:06.242Z,12.00
2022-07-31T01:24:05.246Z,10.80
2022-07-31T01:25:06.236Z,11.50
2022-07-31T01:26:05.226Z,11.20
2022-07-31T01:27:05.576Z,11.00
2022-07-31T01:28:05.207Z,14.80
2022-07-31T01:29:05.225Z,10.80
2022-07-31T01:30:05.188Z,13.20
2022-07-31T01:31:25.577Z,11.30
2022-07-31T01:32:07.184Z,12.10
2022-07-31T01:33:05.174Z,11.60
2022-07-31T01:34:05.187Z,11.30
2022-07-31T01:35:05.150Z,13.10
2022-07-31T01:36:05.153Z,10.00
2022-07-31T01:37:05.555Z,11.40
2022-07-31T01:38:05.130Z,11.30
2022-07-31T01:39:05.168Z,13.30
2022-07-31T01:40:05.117Z,10.40
2022-07-31T01:41:05.111Z,12.40
2022-07-31T01:42:05.370Z,13.00
2022-07-31T01:43:05.099Z,11.90
2022-07-31T01:44:05.116Z,12.40
2022-07-31T01:45:05.083Z,13.30
2022-07-31T01:46:05.073Z,12.00
2022-07-31T01:47:05.390Z,15.50
2022-07-31T01:48:05.060Z,9.90
2022-07-31T01:49:05.158Z,10.80
2022-07-31T01:50:05.052Z,12.00
2022-07-31T01:51:05.034Z,10.30
2022-07-31T01:52:05.328Z,11.80
2022-07-31T01:53:05.022Z,11.10
2022-07-31T01:54:05.010Z,12.30
2022-07-31T01:55:05.034Z,12.20
2022-07-31T01:56:04.992Z,11.60
2022-07-31T01:57:04.987Z,11.00
2022-07-31T01:58:04.972Z,11.90
2022-07-31T01:59:20.746Z,11.30
2022-07-31T02:00:05.993Z,13.40
2022-07-31T02:01:06.025Z,11.70
2022-07-31T02:02:05.338Z,10.90
2022-07-31T02:03:09.436Z,11.10
2022-07-31T02:04:05.933Z,11.60
2022-07-31T02:05:04.962Z,10.90
2022-07-31T02:06:04.919Z,11.80
2022-07-31T02:07:04.917Z,11.30
2022-07-31T02:08:04.907Z,10.70
2022-07-31T02:09:04.907Z,10.50
2022-07-31T02:10:04.924Z,12.10
2022-07-31T02:11:04.896Z,12.40
2022-07-31T02:12:05.277Z,11.80
2022-07-31T02:13:04.872Z,11.00
2022-07-31T02:14:04.865Z,12.70
2022-07-31T02:15:04.882Z,12.50
2022-07-31T02:16:05.047Z,13.50
2022-07-31T02:17:04.842Z,11.70
2022-07-31T02:18:04.828Z,10.40
2022-07-31T02:19:04.826Z,12.00
2022-07-31T02:20:04.842Z,11.90
2022-07-31T02:21:04.794Z,11.60
2022-07-31T02:22:05.965Z,11.70
2022-07-31T02:23:04.796Z,12.00
2022-07-31T02:24:04.788Z,13.10
2022-07-31T02:25:04.807Z,12.20
2022-07-31T02:26:04.773Z,12.20
2022-07-31T02:27:04.759Z,13.40
2022-07-31T02:28:05.752Z,11.00
2022-07-31T02:29:04.770Z,11.80
2022-07-31T02:30:04.775Z,12.00
2022-07-31T02:31:04.734Z,11.40
2022-07-31T02:32:04.722Z,11.70
2022-07-31T02:33:04.724Z,11.30
2022-07-31T02:34:04.714Z,10.40
2022-07-31T02:35:04.726Z,11.80
2022-07-31T02:36:04.701Z,11.20
2022-07-31T02:37:04.688Z,10.80
2022-07-31T02:38:04.672Z,10.10
2022-07-31T02:39:04.669Z,11.80
2022-07-31T02:40:04.686Z,12.10
2022-07-31T02:41:04.661Z,11.70
2022-07-31T02:42:04.959Z,10.60
2022-07-31T02:43:04.637Z,12.00
2022-07-31T02:44:04.632Z,12.50
2022-07-31T02:45:04.648Z,11.40
2022-07-31T02:46:04.608Z,13.20
2022-07-31T02:47:04.603Z,12.90
2022-07-31T02:48:04.596Z,13.40
2022-07-31T02:49:04.622Z,11.30
2022-07-31T02:50:04.609Z,12.30
2022-07-31T02:51:04.582Z,11.80
2022-07-31T02:52:04.886Z,12.70
2022-07-31T02:53:04.560Z,11.60
2022-07-31T02:54:04.559Z,10.20
2022-07-31T02:55:04.566Z,12.40
2022-07-31T02:56:04.751Z,11.20
2022-07-31T02:57:04.528Z,12.40
2022-07-31T02:58:04.563Z,11.20
2022-07-31T02:59:04.501Z,13.60
2022-07-31T03:00:05.527Z,11.60
2022-07-31T03:01:04.591Z,11.00
2022-07-31T03:02:04.788Z,14.30
2022-07-31T03:03:04.478Z,13.00
2022-07-31T03:04:04.476Z,12.90
2022-07-31T03:05:04.494Z,11.20
2022-07-31T03:06:04.471Z,13.30
2022-07-31T03:07:04.447Z,12.20
2022-07-31T03:08:04.448Z,11.80
2022-07-31T03:09:04.439Z,16.30
2022-07-31T03:10:04.431Z,12.10
2022-07-31T03:11:04.446Z,12.70
2022-07-31T03:12:05.099Z,15.70
2022-07-31T03:13:04.423Z,11.80
2022-07-31T03:14:04.403Z,11.30
2022-07-31T03:15:04.393Z,11.70
2022-07-31T03:16:04.415Z,11.70
2022-07-31T03:17:04.376Z,11.20
2022-07-31T03:18:11.119Z,13.60
2022-07-31T03:19:05.359Z,17.60
2022-07-31T03:20:04.353Z,11.70
2022-07-31T03:21:04.376Z,13.30
2022-07-31T03:22:04.677Z,12.40
2022-07-31T03:23:04.335Z,13.40
2022-07-31T03:24:04.321Z,13.40
2022-07-31T03:25:04.319Z,12.90
2022-07-31T03:26:04.334Z,11.50
2022-07-31T03:27:04.301Z,11.40
2022-07-31T03:28:04.304Z,9.90
2022-07-31T03:29:04.283Z,13.00
2022-07-31T03:30:05.274Z,11.00
2022-07-31T03:31:04.295Z,14.00
2022-07-31T03:32:04.609Z,12.80
2022-07-31T03:33:04.252Z,11.10
2022-07-31T03:34:04.245Z,12.10
2022-07-31T03:35:04.234Z,13.20
2022-07-31T03:36:04.253Z,13.70
2022-07-31T03:37:04.225Z,11.10
2022-07-31T03:38:41.680Z,12.70
2022-07-31T03:39:05.209Z,14.70
2022-07-31T03:40:04.199Z,21.20
2022-07-31T03:41:04.216Z,11.80
2022-07-31T03:42:04.495Z,14.10
2022-07-31T03:43:04.179Z,11.80
2022-07-31T03:44:04.170Z,12.00
2022-07-31T03:45:04.171Z,11.10
2022-07-31T03:46:04.181Z,11.00
2022-07-31T03:47:04.154Z,11.20
2022-07-31T03:48:04.144Z,10.70
2022-07-31T03:49:04.173Z,13.80
2022-07-31T03:50:04.134Z,11.00
2022-07-31T03:51:04.150Z,12.90
2022-07-31T03:52:06.452Z,10.50
2022-07-31T03:53:06.099Z,10.30
2022-07-31T03:54:05.093Z,15.20
2022-07-31T03:55:04.087Z,11.40
2022-07-31T03:56:04.101Z,13.00
2022-07-31T03:57:04.076Z,13.60
2022-07-31T03:58:04.066Z,12.90
2022-07-31T03:59:04.058Z,11.30
2022-07-31T04:00:04.050Z,10.70
2022-07-31T04:01:04.677Z,16.10
2022-07-31T04:02:06.027Z,14.00
2022-07-31T04:03:04.035Z,11.80
2022-07-31T04:04:04.026Z,12.40
2022-07-31T04:05:09.506Z,11.70
2022-07-31T04:06:06.035Z,10.20
2022-07-31T04:07:04.007Z,12.70
2022-07-31T04:08:03.988Z,9.40
2022-07-31T04:09:07.872Z,13.80
2022-07-31T04:10:04.973Z,11.30
2022-07-31T04:11:03.994Z,13.90
2022-07-31T04:12:04.242Z,12.60
2022-07-31T04:13:03.950Z,11.80
2022-07-31T04:14:03.941Z,12.40
2022-07-31T04:15:03.934Z,14.90
2022-07-31T04:16:03.963Z,11.10
2022-07-31T04:17:03.920Z,10.50
2022-07-31T04:18:03.910Z,11.00
2022-07-31T04:19:03.902Z,10.60
2022-07-31T04:20:05.617Z,12.80
2022-07-31T04:21:03.939Z,10.60
2022-07-31T04:22:04.216Z,15.80
2022-07-31T04:23:03.871Z,11.40
2022-07-31T04:24:03.865Z,13.80
2022-07-31T04:25:03.847Z,12.40
2022-07-31T04:26:04.878Z,12.20
2022-07-31T04:27:03.844Z,11.60
2022-07-31T04:28:03.837Z,12.70
2022-07-31T04:29:03.839Z,13.30
2022-07-31T04:30:03.818Z,13.80
2022-07-31T04:31:03.839Z,12.50
2022-07-31T04:32:04.044Z,15.00
2022-07-31T04:33:03.801Z,12.70
2022-07-31T04:34:03.790Z,12.30
2022-07-31T04:35:03.786Z,12.50
2022-07-31T04:36:03.802Z,15.60
2022-07-31T04:37:03.769Z,11.60
2022-07-31T04:38:03.754Z,13.20
2022-07-31T04:39:03.754Z,11.60
2022-07-31T04:40:03.751Z,12.30
2022-07-31T04:41:03.768Z,13.70
2022-07-31T04:42:03.978Z,13.30
2022-07-31T04:43:03.726Z,11.90
2022-07-31T04:44:03.710Z,12.40
2022-07-31T04:45:03.704Z,12.80
2022-07-31T04:46:03.732Z,12.60
2022-07-31T04:47:04.684Z,13.80
2022-07-31T04:48:03.686Z,11.40
2022-07-31T04:49:03.789Z,12.40
2022-07-31T04:50:03.679Z,12.30
2022-07-31T04:51:03.679Z,11.80
2022-07-31T04:52:03.885Z,11.90
2022-07-31T04:53:03.648Z,12.20
2022-07-31T04:54:03.627Z,13.50
2022-07-31T04:55:03.629Z,15.80
2022-07-31T04:56:03.647Z,13.50
2022-07-31T04:57:03.614Z,13.10
2022-07-31T04:58:03.604Z,12.80
2022-07-31T04:59:03.595Z,12.10
2022-07-31T05:00:03.595Z,13.60
2022-07-31T05:01:03.603Z,14.60
2022-07-31T05:02:04.917Z,12.90
2022-07-31T05:03:03.571Z,11.80
2022-07-31T05:04:03.558Z,11.40
2022-07-31T05:05:03.545Z,10.90
2022-07-31T05:06:03.545Z,9.60
2022-07-31T05:07:03.556Z,10.50
2022-07-31T05:08:03.525Z,10.50
2022-07-31T05:09:08.447Z,11.50
2022-07-31T05:10:05.518Z,11.60
2022-07-31T05:11:03.502Z,12.20
2022-07-31T05:12:03.808Z,13.20
2022-07-31T05:13:03.491Z,14.20
2022-07-31T05:14:03.486Z,15.50
2022-07-31T05:15:03.478Z,10.70
2022-07-31T05:16:03.469Z,11.50
2022-07-31T05:17:03.485Z,11.30
2022-07-31T05:18:03.449Z,12.10
2022-07-31T05:19:03.446Z,11.10
2022-07-31T05:20:03.436Z,12.00
2022-07-31T05:21:03.431Z,11.80
2022-07-31T05:22:03.445Z,11.80
2022-07-31T05:23:06.566Z,11.40
2022-07-31T05:24:03.408Z,10.50
2022-07-31T05:25:03.393Z,10.70
2022-07-31T05:26:03.402Z,11.60
2022-07-31T05:27:03.423Z,9.30
2022-07-31T05:28:03.376Z,11.10
2022-07-31T05:29:04.377Z,12.40
2022-07-31T05:30:03.365Z,12.10
2022-07-31T05:31:03.363Z,11.70
2022-07-31T05:32:03.377Z,11.90
2022-07-31T05:33:03.327Z,11.20
2022-07-31T05:34:04.332Z,11.10
2022-07-31T05:35:03.328Z,9.90
2022-07-31T05:36:03.318Z,10.50
2022-07-31T05:37:03.357Z,9.70
2022-07-31T05:38:03.301Z,12.40
2022-07-31T05:39:03.299Z,12.40
2022-07-31T05:40:03.284Z,10.90
2022-07-31T05:41:03.281Z,12.40
2022-07-31T05:42:03.534Z,12.20
2022-07-31T05:43:03.263Z,12.10
2022-07-31T05:44:03.256Z,14.90
2022-07-31T05:45:03.247Z,14.50
2022-07-31T05:46:03.242Z,14.90
2022-07-31T05:47:03.262Z,12.50
2022-07-31T05:48:03.223Z,14.90
2022-07-31T05:49:03.298Z,13.50
2022-07-31T05:50:03.226Z,11.80
2022-07-31T05:51:05.574Z,13.80
2022-07-31T05:52:04.470Z,13.30
2022-07-31T05:53:03.193Z,13.20
2022-07-31T05:54:03.179Z,13.30
2022-07-31T05:55:03.177Z,13.90
2022-07-31T05:56:03.161Z,12.90
2022-07-31T05:57:03.181Z,11.90
2022-07-31T05:58:03.145Z,13.50
2022-07-31T05:59:03.146Z,14.00
2022-07-31T06:00:03.804Z,15.50
2022-07-31T06:01:03.168Z,14.20
2022-07-31T06:02:03.509Z,14.00
2022-07-31T06:03:03.117Z,13.80
2022-07-31T06:04:03.108Z,14.50
2022-07-31T06:05:03.091Z,13.10
2022-07-31T06:06:03.092Z,13.80
2022-07-31T06:07:03.110Z,17.90
2022-07-31T06:08:03.067Z,15.30
2022-07-31T06:09:04.786Z,15.00
2022-07-31T06:10:04.079Z,12.70
2022-07-31T06:11:03.048Z,16.00
2022-07-31T06:12:03.350Z,11.90
2022-07-31T06:13:03.033Z,12.60
2022-07-31T06:14:03.142Z,12.80
2022-07-31T06:15:03.019Z,14.60
2022-07-31T06:16:03.013Z,13.40
2022-07-31T06:17:03.029Z,14.10
2022-07-31T06:18:02.997Z,14.50
2022-07-31T06:19:02.991Z,15.00
2022-07-31T06:20:02.981Z,13.60
2022-07-31T06:21:02.972Z,13.80
2022-07-31T06:22:03.293Z,13.30
2022-07-31T06:23:02.954Z,12.80
2022-07-31T06:24:03.948Z,13.60
2022-07-31T06:25:02.938Z,14.30
2022-07-31T06:26:03.398Z,14.80
2022-07-31T06:27:02.949Z,15.40
2022-07-31T06:28:04.200Z,14.90
2022-07-31T06:29:03.905Z,15.60
2022-07-31T06:30:02.907Z,14.40
2022-07-31T06:31:02.936Z,15.00
2022-07-31T06:32:03.256Z,15.30
2022-07-31T06:33:08.174Z,15.00
2022-07-31T06:34:03.864Z,14.90
2022-07-31T06:35:02.869Z,13.90
2022-07-31T06:36:02.893Z,14.10
2022-07-31T06:37:02.849Z,13.70
2022-07-31T06:38:02.859Z,15.00
2022-07-31T06:39:02.824Z,14.50
2022-07-31T06:40:02.830Z,16.10
2022-07-31T06:41:02.809Z,12.90
2022-07-31T06:42:03.106Z,17.60
2022-07-31T06:43:06.731Z,14.50
2022-07-31T06:44:03.786Z,13.20
2022-07-31T06:45:02.779Z,15.30
2022-07-31T06:46:02.775Z,12.40
2022-07-31T06:47:02.775Z,13.60
2022-07-31T06:48:02.791Z,13.40
2022-07-31T06:49:08.296Z,15.40
2022-07-31T06:50:04.739Z,14.60
2022-07-31T06:51:29.775Z,12.40
2022-07-31T06:52:05.137Z,12.50
2022-07-31T06:53:02.742Z,15.00
2022-07-31T06:54:02.710Z,14.60
2022-07-31T06:55:02.708Z,13.60
2022-07-31T06:56:02.689Z,13.50
2022-07-31T06:57:02.673Z,12.60
2022-07-31T06:58:03.703Z,18.20
2022-07-31T06:59:02.671Z,14.70
2022-07-31T07:00:07.229Z,12.10
2022-07-31T07:01:04.700Z,12.70
2022-07-31T07:02:03.028Z,14.40
2022-07-31T07:03:02.667Z,15.00
2022-07-31T07:04:02.639Z,12.70
2022-07-31T07:05:05.596Z,12.40
2022-07-31T07:06:02.624Z,15.80
2022-07-31T07:07:02.610Z,13.60
2022-07-31T07:08:02.623Z,15.30
2022-07-31T07:09:02.608Z,12.60
2022-07-31T07:10:02.590Z,14.40
2022-07-31T07:11:02.581Z,13.30
2022-07-31T07:12:02.669Z,13.60
2022-07-31T07:13:02.597Z,13.30
2022-07-31T07:14:02.555Z,13.80
2022-07-31T07:15:02.549Z,13.90
2022-07-31T07:16:02.544Z,14.20
2022-07-31T07:17:02.545Z,13.20
2022-07-31T07:18:02.560Z,14.00
2022-07-31T07:19:02.531Z,12.70
2022-07-31T07:20:02.510Z,13.50
2022-07-31T07:21:02.498Z,12.60
2022-07-31T07:22:35.070Z,14.30
2022-07-31T07:23:02.524Z,12.40
2022-07-31T07:24:02.482Z,13.80
2022-07-31T07:25:02.475Z,13.00
2022-07-31T07:26:02.475Z,13.30
2022-07-31T07:27:02.459Z,11.70
2022-07-31T07:28:02.478Z,16.20
2022-07-31T07:29:02.448Z,13.00
2022-07-31T07:30:02.455Z,15.30
2022-07-31T07:31:02.513Z,13.30
2022-07-31T07:32:02.938Z,13.50
2022-07-31T07:33:02.440Z,13.40
2022-07-31T07:34:02.405Z,15.10
2022-07-31T07:35:02.403Z,12.40
2022-07-31T07:36:02.390Z,14.00
2022-07-31T07:37:02.378Z,12.70
2022-07-31T07:38:02.402Z,15.30
2022-07-31T07:39:02.369Z,13.40
2022-07-31T07:40:03.644Z,12.30
2022-07-31T07:41:02.353Z,13.70
2022-07-31T07:42:02.618Z,11.90
2022-07-31T07:43:03.289Z,13.10
2022-07-31T07:44:03.333Z,11.20
2022-07-31T07:45:02.332Z,12.10
2022-07-31T07:46:02.317Z,11.70
2022-07-31T07:47:02.387Z,14.10
2022-07-31T07:48:06.164Z,10.90
2022-07-31T07:49:03.330Z,11.10
2022-07-31T07:50:02.292Z,11.30
2022-07-31T07:51:02.278Z,10.80
2022-07-31T07:52:02.269Z,10.60
2022-07-31T07:53:02.293Z,12.40
2022-07-31T07:54:02.263Z,11.30
2022-07-31T07:55:02.252Z,11.00
2022-07-31T07:56:02.245Z,11.30
2022-07-31T07:57:02.234Z,10.80
2022-07-31T07:58:02.228Z,11.60
2022-07-31T07:59:02.248Z,12.20
2022-07-31T08:00:02.217Z,9.70
2022-07-31T08:01:02.290Z,10.80
2022-07-31T08:02:02.647Z,10.90
2022-07-31T08:03:46.536Z,11.30
2022-07-31T08:04:03.205Z,13.00
2022-07-31T08:05:02.181Z,11.70
2022-07-31T08:06:02.169Z,12.50
2022-07-31T08:07:02.162Z,11.20
2022-07-31T08:08:02.168Z,11.90
2022-07-31T08:09:02.184Z,11.20
2022-07-31T08:10:02.141Z,10.00
2022-07-31T08:11:02.148Z,10.90
2022-07-31T08:12:02.418Z,9.70
2022-07-31T08:13:02.117Z,10.80
2022-07-31T08:14:02.149Z,11.50
2022-07-31T08:15:02.103Z,10.50
2022-07-31T08:16:02.093Z,9.90
2022-07-31T08:17:02.089Z,12.10
2022-07-31T08:18:02.221Z,11.70
2022-07-31T08:19:02.103Z,13.80
2022-07-31T08:20:02.066Z,12.90
2022-07-31T08:21:02.059Z,9.80
2022-07-31T08:22:02.267Z,12.10
2022-07-31T08:23:02.091Z,9.60
2022-07-31T08:24:02.061Z,10.90
2022-07-31T08:25:05.358Z,10.10
2022-07-31T08:26:02.021Z,10.20
2022-07-31T08:27:02.013Z,12.30
2022-07-31T08:28:02.999Z,10.70
2022-07-31T08:29:05.068Z,9.90
2022-07-31T08:30:02.988Z,11.80
2022-07-31T08:31:01.980Z,10.10
2022-07-31T08:32:02.399Z,9.70
2022-07-31T08:33:02.016Z,10.60
2022-07-31T08:34:01.992Z,9.70
2022-07-31T08:35:01.960Z,12.80
2022-07-31T08:36:01.944Z,10.50
2022-07-31T08:37:52.119Z,12.30
2022-07-31T08:38:04.796Z,11.60
2022-07-31T08:39:01.947Z,12.30
2022-07-31T08:40:01.913Z,11.90
2022-07-31T08:41:01.909Z,10.90
2022-07-31T08:42:02.338Z,10.20
2022-07-31T08:43:03.172Z,10.00
2022-07-31T08:44:04.376Z,8.50
2022-07-31T08:45:02.887Z,10.70
2022-07-31T08:46:01.866Z,9.60
2022-07-31T08:47:01.861Z,10.80
2022-07-31T08:48:01.852Z,11.40
2022-07-31T08:49:01.957Z,10.20
2022-07-31T08:50:01.845Z,9.60
2022-07-31T08:51:01.826Z,11.20
2022-07-31T08:52:02.281Z,10.70
2022-07-31T08:53:01.811Z,12.30
2022-07-31T08:54:01.836Z,11.10
2022-07-31T08:55:01.798Z,11.00
2022-07-31T08:56:01.786Z,10.00
2022-07-31T08:57:02.165Z,9.00
2022-07-31T08:58:01.774Z,11.70
2022-07-31T08:59:01.792Z,9.50
2022-07-31T09:00:01.755Z,10.70
2022-07-31T09:01:01.819Z,9.50
2022-07-31T09:02:02.141Z,10.80
2022-07-31T09:03:01.733Z,9.30
2022-07-31T09:04:01.747Z,10.10
2022-07-31T09:05:01.720Z,9.60
2022-07-31T09:06:01.711Z,9.10
2022-07-31T09:07:02.102Z,11.20
2022-07-31T09:08:01.691Z,10.60
2022-07-31T09:09:01.718Z,10.20
2022-07-31T09:10:01.686Z,9.00
2022-07-31T09:11:01.681Z,7.90
2022-07-31T09:12:01.669Z,9.00
2022-07-31T09:13:01.687Z,10.10
2022-07-31T09:14:03.027Z,9.50
2022-07-31T09:15:01.677Z,9.00
2022-07-31T09:16:01.670Z,8.60
2022-07-31T09:17:02.026Z,8.50
2022-07-31T09:18:01.627Z,8.60
2022-07-31T09:19:01.606Z,9.60
2022-07-31T09:20:01.640Z,8.10
2022-07-31T09:21:02.070Z,7.50
2022-07-31T09:22:01.608Z,8.00
2022-07-31T09:23:01.585Z,8.30
2022-07-31T09:24:01.594Z,7.40
2022-07-31T09:25:01.601Z,8.60
2022-07-31T09:26:01.561Z,8.90
2022-07-31T09:27:01.722Z,10.60
2022-07-31T09:28:01.578Z,10.00
2022-07-31T09:29:01.551Z,8.20
2022-07-31T09:30:01.559Z,8.00
2022-07-31T09:31:01.532Z,10.80
2022-07-31T09:32:01.525Z,8.70
2022-07-31T09:33:01.518Z,9.10
2022-07-31T09:34:01.508Z,9.00
2022-07-31T09:35:01.528Z,7.30
2022-07-31T09:36:01.490Z,7.50
2022-07-31T09:37:01.735Z,9.00
2022-07-31T09:38:01.480Z,9.80
2022-07-31T09:39:05.258Z,8.20
2022-07-31T09:40:01.848Z,10.00
2022-07-31T09:41:01.465Z,6.70
2022-07-31T09:42:17.015Z,8.80
2022-07-31T09:43:03.198Z,8.60
2022-07-31T09:44:01.468Z,7.50
2022-07-31T09:45:01.466Z,7.30
2022-07-31T09:46:01.449Z,8.30
2022-07-31T09:47:01.702Z,7.90
2022-07-31T09:48:01.464Z,7.60
2022-07-31T09:49:01.447Z,8.80
2022-07-31T09:50:01.425Z,8.10
2022-07-31T09:51:01.391Z,9.30
2022-07-31T09:52:01.377Z,8.80
2022-07-31T09:53:01.364Z,8.20
2022-07-31T09:54:01.356Z,7.30
2022-07-31T09:55:01.404Z,6.80
2022-07-31T09:56:01.342Z,9.70
2022-07-31T09:57:01.526Z,7.30
2022-07-31T09:58:01.330Z,8.90
2022-07-31T09:59:01.318Z,8.50
2022-07-31T10:00:01.345Z,7.60
2022-07-31T10:01:01.361Z,9.40
2022-07-31T10:02:01.295Z,7.80
2022-07-31T10:03:01.295Z,8.30
2022-07-31T10:04:01.339Z,8.10
2022-07-31T10:05:01.324Z,8.20
2022-07-31T10:06:01.268Z,7.80
2022-07-31T10:07:01.448Z,8.70
2022-07-31T10:08:01.270Z,8.60
2022-07-31T10:09:01.251Z,8.60
2022-07-31T10:10:01.296Z,7.90
2022-07-31T10:11:01.231Z,8.60
2022-07-31T10:12:01.228Z,8.10
2022-07-31T10:13:01.298Z,8.90
2022-07-31T10:14:01.213Z,9.60
2022-07-31T10:15:01.233Z,8.20
2022-07-31T10:16:01.195Z,7.30
2022-07-31T10:17:02.565Z,7.80
2022-07-31T10:18:01.180Z,7.60
2022-07-31T10:19:01.181Z,7.50
2022-07-31T10:20:01.164Z,7.10
2022-07-31T10:21:01.183Z,8.10
2022-07-31T10:22:01.147Z,7.40
2022-07-31T10:23:01.143Z,8.80
2022-07-31T10:24:01.137Z,8.00
2022-07-31T10:25:01.119Z,7.60
2022-07-31T10:26:01.158Z,8.10
2022-07-31T10:27:07.804Z,5.80
2022-07-31T10:28:03.102Z,7.40
2022-07-31T10:29:01.099Z,7.20
2022-07-31T10:30:01.097Z,8.00
2022-07-31T10:31:01.119Z,6.80
2022-07-31T10:32:01.075Z,7.20
2022-07-31T10:33:01.064Z,8.70
2022-07-31T10:34:01.053Z,8.30
2022-07-31T10:35:01.051Z,7.90
2022-07-31T10:36:01.069Z,6.90
2022-07-31T10:37:01.173Z,8.10
2022-07-31T10:38:01.028Z,8.00
2022-07-31T10:39:01.015Z,7.80
2022-07-31T10:40:01.015Z,7.20
2022-07-31T10:41:01.036Z,7.00
2022-07-31T10:42:01.017Z,6.50
2022-07-31T10:43:01.018Z,10.20
2022-07-31T10:44:00.984Z,8.20
2022-07-31T10:45:00.970Z,9.40
2022-07-31T10:46:00.986Z,8.00
2022-07-31T10:47:00.953Z,7.70
2022-07-31T10:48:00.963Z,9.50
2022-07-31T10:49:00.978Z,8.80
2022-07-31T10:50:01.938Z,9.30
2022-07-31T10:51:00.947Z,6.60
2022-07-31T10:52:00.920Z,7.80
2022-07-31T10:53:00.910Z,7.30
2022-07-31T10:54:00.966Z,8.30
2022-07-31T10:55:00.902Z,6.80
2022-07-31T10:56:00.922Z,6.50
2022-07-31T10:57:00.981Z,7.70
2022-07-31T10:58:00.878Z,6.80
2022-07-31T10:59:00.863Z,8.60
2022-07-31T11:00:00.869Z,6.50
2022-07-31T11:01:00.876Z,6.90
2022-07-31T11:02:00.897Z,8.60
2022-07-31T11:03:00.884Z,7.50
2022-07-31T11:04:00.841Z,4.60
2022-07-31T11:05:00.828Z,5.40
2022-07-31T11:06:02.898Z,5.70
2022-07-31T11:07:00.814Z,9.00
2022-07-31T11:08:00.802Z,5.80
2022-07-31T11:09:00.794Z,6.60
2022-07-31T11:10:00.790Z,5.60
2022-07-31T11:11:00.817Z,5.50
2022-07-31T11:12:00.769Z,4.60
2022-07-31T11:13:00.758Z,5.10
2022-07-31T11:14:00.759Z,4.70
2022-07-31T11:15:00.749Z,5.10
2022-07-31T11:16:00.762Z,6.30
2022-07-31T11:17:00.756Z,4.00
2022-07-31T11:18:22.148Z,4.60
2022-07-31T11:19:01.734Z,6.60
2022-07-31T11:20:00.715Z,4.80
2022-07-31T11:21:06.187Z,4.70
2022-07-31T11:22:31.244Z,5.90
2022-07-31T11:23:01.692Z,4.60
2022-07-31T11:24:03.345Z,5.80
2022-07-31T11:25:00.822Z,5.80
2022-07-31T11:26:00.663Z,4.90
2022-07-31T11:27:00.687Z,6.10
2022-07-31T11:28:00.649Z,5.50
2022-07-31T11:30:00.452Z,4.10
2022-07-31T11:30:04.744Z,5.10
2022-07-31T11:31:02.635Z,4.70
2022-07-31T11:32:00.649Z,5.50
2022-07-31T11:33:00.613Z,6.70
2022-07-31T11:34:00.603Z,5.70
2022-07-31T11:35:00.601Z,4.20
2022-07-31T11:36:00.595Z,4.30
2022-07-31T11:37:00.617Z,3.70
2022-07-31T11:38:00.598Z,6.40
2022-07-31T11:39:00.619Z,5.70
2022-07-31T11:40:00.576Z,4.60
2022-07-31T11:41:00.563Z,4.40
2022-07-31T11:42:00.582Z,5.50
2022-07-31T11:43:24.762Z,3.80
2022-07-31T11:44:02.542Z,6.10
2022-07-31T11:45:00.539Z,3.60
2022-07-31T11:46:00.525Z,3.40
2022-07-31T11:47:00.568Z,4.00
2022-07-31T11:48:11.033Z,4.40
2022-07-31T11:49:01.577Z,7.30
2022-07-31T11:50:00.592Z,4.70
2022-07-31T11:51:00.490Z,3.30
2022-07-31T11:52:00.502Z,4.90
2022-07-31T11:53:00.472Z,4.70
2022-07-31T11:54:00.469Z,3.80
2022-07-31T11:55:04.231Z,3.50
2022-07-31T11:56:01.458Z,3.50
2022-07-31T11:57:00.580Z,5.30
2022-07-31T11:58:00.436Z,4.40
2022-07-31T11:59:00.418Z,3.60
2022-07-31T12:00:01.424Z,6.30
2022-07-31T12:01:01.416Z,3.30
2022-07-31T12:02:00.444Z,4.10
2022-07-31T12:03:00.477Z,3.50
2022-07-31T12:04:07.515Z,3.50
2022-07-31T12:05:01.392Z,4.90
2022-07-31T12:06:00.375Z,4.00
2022-07-31T12:07:00.410Z,7.90
2022-07-31T12:08:00.367Z,4.10
2022-07-31T12:09:00.354Z,5.40
2022-07-31T12:10:03.429Z,3.70
2022-07-31T12:11:00.355Z,4.20
2022-07-31T12:12:01.389Z,4.10
2022-07-31T12:13:00.334Z,3.90
2022-07-31T12:14:00.345Z,3.40
2022-07-31T12:15:00.318Z,3.80
2022-07-31T12:16:00.304Z,3.40
2022-07-31T12:17:00.306Z,5.00
2022-07-31T12:18:00.325Z,5.70
2022-07-31T12:19:00.282Z,4.40
2022-07-31T12:20:00.272Z,4.80
2022-07-31T12:21:00.272Z,4.20
2022-07-31T12:22:00.265Z,3.50
2022-07-31T12:23:00.273Z,5.30
2022-07-31T12:24:00.250Z,4.90
2022-07-31T12:25:00.244Z,4.70
2022-07-31T12:26:00.233Z,3.80
2022-07-31T12:27:00.227Z,3.60
2022-07-31T12:28:00.243Z,4.00
2022-07-31T12:29:00.217Z,4.90
2022-07-31T12:30:00.219Z,4.50
2022-07-31T12:31:00.229Z,4.00
2022-07-31T12:32:00.182Z,6.00
2022-07-31T12:33:00.208Z,3.50
2022-07-31T12:34:00.173Z,4.70
2022-07-31T12:35:00.162Z,4.10
2022-07-31T12:36:00.156Z,3.40
2022-07-31T12:37:00.155Z,3.70
2022-07-31T12:38:00.183Z,3.90
2022-07-31T12:39:00.136Z,6.60
2022-07-31T12:40:01.417Z,3.90
2022-07-31T12:41:00.132Z,3.90
2022-07-31T12:42:00.117Z,4.50
2022-07-31T12:43:00.134Z,4.40
2022-07-31T12:44:00.105Z,3.90
2022-07-31T12:45:00.092Z,5.50
2022-07-31T12:46:00.101Z,6.00
2022-07-31T12:47:00.093Z,5.40
2022-07-31T12:48:00.102Z,4.40
2022-07-31T12:49:00.100Z,5.20
2022-07-31T12:50:00.080Z,5.70
2022-07-31T12:51:00.052Z,5.00
2022-07-31T12:52:00.044Z,4.70
2022-07-31T12:53:00.063Z,4.50
2022-07-31T12:54:00.031Z,3.80
2022-07-31T12:55:00.023Z,3.80
2022-07-31T12:56:00.018Z,5.30
2022-07-31T12:57:00.014Z,3.70
2022-07-31T12:58:00.026Z,3.70
2022-07-31T12:59:00.007Z,4.50
2022-07-31T12:59:59.984Z,4.30
2022-07-31T13:00:59.977Z,5.20